sensor_id;sensor_type;location;lat;lon;timestamp;P1;durP1;ratioP1;P2;durP2;ratioP2
19193;SDS011;9729;52.296;13.260;2022-09-29T00:01:05;8.33;;;5.43;;
19193;SDS011;9729;52.296;13.260;2022-09-29T00:03:31;11.77;;;6.30;;
19193;SDS011;9729;52.296;13.260;2022-09-29T00:05:58;9.23;;;5.50;;
19193;SDS011;9729;52.296;13.260;2022-09-29T00:08:26;13.23;;;6.13;;
19193;SDS011;9729;52.296;13.260;2022-09-29T00:10:53;9.97;;;6.17;;
19193;SDS011;9729;52.296;13.260;2022-09-29T00:13:20;7.57;;;5.40;;
19193;SDS011;9729;52.296;13.260;2022-09-29T00:15:53;7.97;;;5.57;;
19193;SDS011;9729;52.296;13.260;2022-09-29T00:18:21;8.33;;;5.87;;
19193;SDS011;9729;52.296;13.260;2022-09-29T00:20:54;10.53;;;7.27;;
19193;SDS011;9729;52.296;13.260;2022-09-29T00:23:22;8.43;;;5.43;;
19193;SDS011;9729;52.296;13.260;2022-09-29T00:25:58;9.10;;;5.57;;
19193;SDS011;9729;52.296;13.260;2022-09-29T00:28:29;8.10;;;5.57;;
19193;SDS011;9729;52.296;13.260;2022-09-29T00:30:56;12.37;;;5.43;;
19193;SDS011;9729;52.296;13.260;2022-09-29T00:33:24;14.47;;;5.53;;
19193;SDS011;9729;52.296;13.260;2022-09-29T00:35:57;8.00;;;5.07;;
19193;SDS011;9729;52.296;13.260;2022-09-29T00:38:25;6.97;;;4.90;;
19193;SDS011;9729;52.296;13.260;2022-09-29T00:40:51;7.00;;;4.80;;
19193;SDS011;9729;52.296;13.260;2022-09-29T00:43:20;8.17;;;5.20;;
19193;SDS011;9729;52.296;13.260;2022-09-29T00:45:48;7.93;;;6.20;;
19193;SDS011;9729;52.296;13.260;2022-09-29T00:48:16;9.63;;;5.27;;
19193;SDS011;9729;52.296;13.260;2022-09-29T00:50:45;8.07;;;4.70;;
19193;SDS011;9729;52.296;13.260;2022-09-29T00:53:13;7.63;;;5.13;;
19193;SDS011;9729;52.296;13.260;2022-09-29T00:55:42;10.97;;;5.37;;
19193;SDS011;9729;52.296;13.260;2022-09-29T00:58:16;7.73;;;5.40;;
19193;SDS011;9729;52.296;13.260;2022-09-29T01:00:48;11.23;;;5.57;;
19193;SDS011;9729;52.296;13.260;2022-09-29T01:03:15;12.53;;;6.50;;
19193;SDS011;9729;52.296;13.260;2022-09-29T01:05:44;11.57;;;6.30;;
19193;SDS011;9729;52.296;13.260;2022-09-29T01:08:14;11.47;;;7.37;;
19193;SDS011;9729;52.296;13.260;2022-09-29T01:10:44;11.80;;;7.17;;
19193;SDS011;9729;52.296;13.260;2022-09-29T01:13:10;15.57;;;7.33;;
19193;SDS011;9729;52.296;13.260;2022-09-29T01:15:36;13.00;;;7.47;;
19193;SDS011;9729;52.296;13.260;2022-09-29T01:18:05;11.50;;;7.73;;
19193;SDS011;9729;52.296;13.260;2022-09-29T01:20:32;17.37;;;8.10;;
19193;SDS011;9729;52.296;13.260;2022-09-29T01:23:09;13.10;;;7.23;;
19193;SDS011;9729;52.296;13.260;2022-09-29T01:25:56;22.10;;;7.80;;
19193;SDS011;9729;52.296;13.260;2022-09-29T01:28:38;17.60;;;8.40;;
19193;SDS011;9729;52.296;13.260;2022-09-29T01:31:21;17.37;;;8.83;;
19193;SDS011;9729;52.296;13.260;2022-09-29T01:33:53;13.30;;;9.20;;
19193;SDS011;9729;52.296;13.260;2022-09-29T01:36:28;16.07;;;8.43;;
19193;SDS011;9729;52.296;13.260;2022-09-29T01:39:04;15.47;;;8.47;;
19193;SDS011;9729;52.296;13.260;2022-09-29T01:41:35;14.87;;;8.63;;
19193;SDS011;9729;52.296;13.260;2022-09-29T01:44:06;18.43;;;8.40;;
19193;SDS011;9729;52.296;13.260;2022-09-29T01:46:38;16.73;;;8.50;;
19193;SDS011;9729;52.296;13.260;2022-09-29T01:49:07;15.00;;;9.57;;
19193;SDS011;9729;52.296;13.260;2022-09-29T01:51:36;14.00;;;8.13;;
19193;SDS011;9729;52.296;13.260;2022-09-29T01:54:07;16.37;;;7.97;;
19193;SDS011;9729;52.296;13.260;2022-09-29T01:56:40;19.73;;;9.27;;
19193;SDS011;9729;52.296;13.260;2022-09-29T01:59:09;12.83;;;8.20;;
19193;SDS011;9729;52.296;13.260;2022-09-29T02:01:39;14.83;;;9.27;;
19193;SDS011;9729;52.296;13.260;2022-09-29T02:04:10;13.40;;;8.57;;
19193;SDS011;9729;52.296;13.260;2022-09-29T02:06:41;20.23;;;9.47;;
19193;SDS011;9729;52.296;13.260;2022-09-29T02:09:12;16.87;;;9.30;;
19193;SDS011;9729;52.296;13.260;2022-09-29T02:11:42;17.47;;;10.00;;
19193;SDS011;9729;52.296;13.260;2022-09-29T02:14:10;18.97;;;9.43;;
19193;SDS011;9729;52.296;13.260;2022-09-29T02:16:41;14.80;;;9.10;;
19193;SDS011;9729;52.296;13.260;2022-09-29T02:19:12;16.90;;;9.47;;
19193;SDS011;9729;52.296;13.260;2022-09-29T02:21:41;15.97;;;9.70;;
19193;SDS011;9729;52.296;13.260;2022-09-29T02:24:07;16.47;;;10.27;;
19193;SDS011;9729;52.296;13.260;2022-09-29T02:26:34;16.80;;;9.67;;
19193;SDS011;9729;52.296;13.260;2022-09-29T02:29:01;15.07;;;9.47;;
19193;SDS011;9729;52.296;13.260;2022-09-29T02:31:29;15.07;;;9.57;;
19193;SDS011;9729;52.296;13.260;2022-09-29T02:33:57;16.13;;;9.73;;
19193;SDS011;9729;52.296;13.260;2022-09-29T02:36:25;16.30;;;9.73;;
19193;SDS011;9729;52.296;13.260;2022-09-29T02:38:58;15.57;;;9.60;;
19193;SDS011;9729;52.296;13.260;2022-09-29T02:41:31;18.47;;;9.90;;
19193;SDS011;9729;52.296;13.260;2022-09-29T02:44:04;16.63;;;10.33;;
19193;SDS011;9729;52.296;13.260;2022-09-29T02:46:41;17.83;;;9.80;;
19193;SDS011;9729;52.296;13.260;2022-09-29T02:49:21;18.80;;;10.97;;
19193;SDS011;9729;52.296;13.260;2022-09-29T02:51:54;21.30;;;10.70;;
19193;SDS011;9729;52.296;13.260;2022-09-29T02:54:27;18.77;;;11.07;;
19193;SDS011;9729;52.296;13.260;2022-09-29T02:57:02;18.53;;;11.30;;
19193;SDS011;9729;52.296;13.260;2022-09-29T02:59:39;20.53;;;11.67;;
19193;SDS011;9729;52.296;13.260;2022-09-29T03:02:08;21.90;;;11.90;;
19193;SDS011;9729;52.296;13.260;2022-09-29T03:04:35;21.80;;;11.97;;
19193;SDS011;9729;52.296;13.260;2022-09-29T03:07:02;20.10;;;11.87;;
19193;SDS011;9729;52.296;13.260;2022-09-29T03:09:28;18.83;;;11.93;;
19193;SDS011;9729;52.296;13.260;2022-09-29T03:11:55;21.53;;;11.97;;
19193;SDS011;9729;52.296;13.260;2022-09-29T03:14:22;20.43;;;11.20;;
19193;SDS011;9729;52.296;13.260;2022-09-29T03:16:48;21.57;;;12.10;;
19193;SDS011;9729;52.296;13.260;2022-09-29T03:19:15;23.23;;;12.37;;
19193;SDS011;9729;52.296;13.260;2022-09-29T03:21:43;21.60;;;12.47;;
19193;SDS011;9729;52.296;13.260;2022-09-29T03:24:09;22.47;;;12.90;;
19193;SDS011;9729;52.296;13.260;2022-09-29T03:26:35;25.33;;;13.40;;
19193;SDS011;9729;52.296;13.260;2022-09-29T03:29:02;21.77;;;12.57;;
19193;SDS011;9729;52.296;13.260;2022-09-29T03:31:28;26.80;;;13.17;;
19193;SDS011;9729;52.296;13.260;2022-09-29T03:33:55;22.30;;;12.90;;
19193;SDS011;9729;52.296;13.260;2022-09-29T03:36:21;23.30;;;13.77;;
19193;SDS011;9729;52.296;13.260;2022-09-29T03:38:49;22.60;;;13.00;;
19193;SDS011;9729;52.296;13.260;2022-09-29T03:41:15;19.10;;;12.13;;
19193;SDS011;9729;52.296;13.260;2022-09-29T03:43:42;21.33;;;13.20;;
19193;SDS011;9729;52.296;13.260;2022-09-29T03:46:08;24.23;;;13.07;;
19193;SDS011;9729;52.296;13.260;2022-09-29T03:48:34;23.53;;;12.77;;
19193;SDS011;9729;52.296;13.260;2022-09-29T03:51:01;28.07;;;14.60;;
19193;SDS011;9729;52.296;13.260;2022-09-29T03:53:28;22.97;;;12.83;;
19193;SDS011;9729;52.296;13.260;2022-09-29T03:55:55;27.07;;;14.40;;
19193;SDS011;9729;52.296;13.260;2022-09-29T03:58:22;25.97;;;15.43;;
19193;SDS011;9729;52.296;13.260;2022-09-29T04:00:48;25.00;;;12.60;;
19193;SDS011;9729;52.296;13.260;2022-09-29T04:03:14;22.43;;;13.57;;
19193;SDS011;9729;52.296;13.260;2022-09-29T04:05:41;29.57;;;15.83;;
19193;SDS011;9729;52.296;13.260;2022-09-29T04:08:09;22.37;;;13.80;;
19193;SDS011;9729;52.296;13.260;2022-09-29T04:10:36;27.67;;;14.67;;
19193;SDS011;9729;52.296;13.260;2022-09-29T04:13:05;24.73;;;14.20;;
19193;SDS011;9729;52.296;13.260;2022-09-29T04:15:31;24.47;;;14.00;;
19193;SDS011;9729;52.296;13.260;2022-09-29T04:17:58;28.50;;;15.27;;
19193;SDS011;9729;52.296;13.260;2022-09-29T04:20:24;26.40;;;14.03;;
19193;SDS011;9729;52.296;13.260;2022-09-29T04:22:51;25.60;;;14.13;;
19193;SDS011;9729;52.296;13.260;2022-09-29T04:25:17;26.50;;;14.93;;
19193;SDS011;9729;52.296;13.260;2022-09-29T04:27:44;23.33;;;12.37;;
19193;SDS011;9729;52.296;13.260;2022-09-29T04:30:12;29.20;;;14.30;;
19193;SDS011;9729;52.296;13.260;2022-09-29T04:32:39;27.27;;;14.90;;
19193;SDS011;9729;52.296;13.260;2022-09-29T04:35:06;23.23;;;13.10;;
19193;SDS011;9729;52.296;13.260;2022-09-29T04:37:33;26.77;;;13.93;;
19193;SDS011;9729;52.296;13.260;2022-09-29T04:40:00;25.73;;;13.90;;
19193;SDS011;9729;52.296;13.260;2022-09-29T04:42:27;26.70;;;13.60;;
19193;SDS011;9729;52.296;13.260;2022-09-29T04:44:53;27.03;;;13.93;;
19193;SDS011;9729;52.296;13.260;2022-09-29T04:47:21;26.43;;;14.17;;
19193;SDS011;9729;52.296;13.260;2022-09-29T04:49:48;25.20;;;13.87;;
19193;SDS011;9729;52.296;13.260;2022-09-29T04:52:14;26.57;;;15.23;;
19193;SDS011;9729;52.296;13.260;2022-09-29T04:54:40;33.53;;;16.00;;
19193;SDS011;9729;52.296;13.260;2022-09-29T04:57:08;34.37;;;16.73;;
19193;SDS011;9729;52.296;13.260;2022-09-29T04:59:34;30.50;;;15.77;;
19193;SDS011;9729;52.296;13.260;2022-09-29T05:02:01;29.10;;;15.03;;
19193;SDS011;9729;52.296;13.260;2022-09-29T05:04:29;27.93;;;15.27;;
19193;SDS011;9729;52.296;13.260;2022-09-29T05:06:55;31.47;;;15.93;;
19193;SDS011;9729;52.296;13.260;2022-09-29T05:09:21;27.97;;;15.10;;
19193;SDS011;9729;52.296;13.260;2022-09-29T05:11:48;28.77;;;15.77;;
19193;SDS011;9729;52.296;13.260;2022-09-29T05:14:14;32.57;;;14.50;;
19193;SDS011;9729;52.296;13.260;2022-09-29T05:16:41;28.10;;;15.40;;
19193;SDS011;9729;52.296;13.260;2022-09-29T05:19:07;30.37;;;15.33;;
19193;SDS011;9729;52.296;13.260;2022-09-29T05:21:36;29.50;;;15.97;;
19193;SDS011;9729;52.296;13.260;2022-09-29T05:24:02;28.60;;;15.13;;
19193;SDS011;9729;52.296;13.260;2022-09-29T05:26:28;28.33;;;15.47;;
19193;SDS011;9729;52.296;13.260;2022-09-29T05:28:55;36.77;;;15.63;;
19193;SDS011;9729;52.296;13.260;2022-09-29T05:31:21;27.90;;;15.13;;
19193;SDS011;9729;52.296;13.260;2022-09-29T05:33:47;34.97;;;16.33;;
19193;SDS011;9729;52.296;13.260;2022-09-29T05:36:14;30.23;;;15.47;;
19193;SDS011;9729;52.296;13.260;2022-09-29T05:38:41;31.73;;;16.30;;
19193;SDS011;9729;52.296;13.260;2022-09-29T05:41:09;29.27;;;15.80;;
19193;SDS011;9729;52.296;13.260;2022-09-29T05:43:37;29.73;;;16.13;;
19193;SDS011;9729;52.296;13.260;2022-09-29T05:46:04;27.87;;;15.73;;
19193;SDS011;9729;52.296;13.260;2022-09-29T05:48:32;27.67;;;15.83;;
19193;SDS011;9729;52.296;13.260;2022-09-29T05:50:59;32.27;;;17.47;;
19193;SDS011;9729;52.296;13.260;2022-09-29T05:53:32;31.07;;;16.20;;
19193;SDS011;9729;52.296;13.260;2022-09-29T05:56:03;33.53;;;18.30;;
19193;SDS011;9729;52.296;13.260;2022-09-29T05:58:31;27.37;;;16.63;;
19193;SDS011;9729;52.296;13.260;2022-09-29T06:00:57;27.83;;;16.83;;
19193;SDS011;9729;52.296;13.260;2022-09-29T06:03:24;27.77;;;15.50;;
19193;SDS011;9729;52.296;13.260;2022-09-29T06:05:50;32.10;;;15.87;;
19193;SDS011;9729;52.296;13.260;2022-09-29T06:08:17;37.60;;;17.53;;
19193;SDS011;9729;52.296;13.260;2022-09-29T06:10:43;30.10;;;16.27;;
19193;SDS011;9729;52.296;13.260;2022-09-29T06:13:11;28.80;;;16.90;;
19193;SDS011;9729;52.296;13.260;2022-09-29T06:15:37;32.97;;;16.80;;
19193;SDS011;9729;52.296;13.260;2022-09-29T06:18:03;31.83;;;17.00;;
19193;SDS011;9729;52.296;13.260;2022-09-29T06:20:30;29.83;;;15.93;;
19193;SDS011;9729;52.296;13.260;2022-09-29T06:23:02;27.57;;;16.27;;
19193;SDS011;9729;52.296;13.260;2022-09-29T06:25:28;30.50;;;16.97;;
19193;SDS011;9729;52.296;13.260;2022-09-29T06:27:55;27.87;;;17.27;;
19193;SDS011;9729;52.296;13.260;2022-09-29T06:30:22;30.00;;;17.17;;
19193;SDS011;9729;52.296;13.260;2022-09-29T06:32:49;32.43;;;16.80;;
19193;SDS011;9729;52.296;13.260;2022-09-29T06:35:15;28.13;;;16.50;;
19193;SDS011;9729;52.296;13.260;2022-09-29T06:37:59;33.50;;;17.47;;
19193;SDS011;9729;52.296;13.260;2022-09-29T06:40:26;31.17;;;17.80;;
19193;SDS011;9729;52.296;13.260;2022-09-29T06:42:53;35.60;;;17.87;;
19193;SDS011;9729;52.296;13.260;2022-09-29T06:45:19;34.17;;;18.00;;
19193;SDS011;9729;52.296;13.260;2022-09-29T06:47:47;33.17;;;17.03;;
19193;SDS011;9729;52.296;13.260;2022-09-29T06:50:13;28.03;;;16.50;;
19193;SDS011;9729;52.296;13.260;2022-09-29T06:52:39;30.90;;;17.30;;
19193;SDS011;9729;52.296;13.260;2022-09-29T06:55:06;28.20;;;16.27;;
19193;SDS011;9729;52.296;13.260;2022-09-29T06:57:33;27.80;;;17.23;;
19193;SDS011;9729;52.296;13.260;2022-09-29T06:59:59;28.33;;;16.07;;
19193;SDS011;9729;52.296;13.260;2022-09-29T07:02:26;27.73;;;16.83;;
19193;SDS011;9729;52.296;13.260;2022-09-29T07:04:54;31.03;;;17.17;;
19193;SDS011;9729;52.296;13.260;2022-09-29T07:07:21;31.00;;;17.20;;
19193;SDS011;9729;52.296;13.260;2022-09-29T07:09:48;24.90;;;16.77;;
19193;SDS011;9729;52.296;13.260;2022-09-29T07:12:14;29.57;;;17.30;;
19193;SDS011;9729;52.296;13.260;2022-09-29T07:14:40;26.27;;;16.97;;
19193;SDS011;9729;52.296;13.260;2022-09-29T07:17:07;28.37;;;16.63;;
19193;SDS011;9729;52.296;13.260;2022-09-29T07:19:34;27.80;;;17.10;;
19193;SDS011;9729;52.296;13.260;2022-09-29T07:22:01;31.23;;;17.63;;
19193;SDS011;9729;52.296;13.260;2022-09-29T07:24:28;28.13;;;16.77;;
19193;SDS011;9729;52.296;13.260;2022-09-29T07:26:54;31.77;;;18.03;;
19193;SDS011;9729;52.296;13.260;2022-09-29T07:29:21;27.33;;;16.27;;
19193;SDS011;9729;52.296;13.260;2022-09-29T07:31:47;29.07;;;16.97;;
19193;SDS011;9729;52.296;13.260;2022-09-29T07:34:16;27.97;;;16.03;;
19193;SDS011;9729;52.296;13.260;2022-09-29T07:36:42;27.77;;;16.70;;
19193;SDS011;9729;52.296;13.260;2022-09-29T07:39:10;31.87;;;16.03;;
19193;SDS011;9729;52.296;13.260;2022-09-29T07:41:37;24.37;;;15.40;;
19193;SDS011;9729;52.296;13.260;2022-09-29T07:44:03;25.10;;;16.33;;
19193;SDS011;9729;52.296;13.260;2022-09-29T07:46:30;26.70;;;16.47;;
19193;SDS011;9729;52.296;13.260;2022-09-29T07:48:58;27.13;;;16.93;;
19193;SDS011;9729;52.296;13.260;2022-09-29T07:51:25;29.00;;;17.50;;
19193;SDS011;9729;52.296;13.260;2022-09-29T07:53:51;25.60;;;16.93;;
19193;SDS011;9729;52.296;13.260;2022-09-29T07:56:19;27.50;;;16.53;;
19193;SDS011;9729;52.296;13.260;2022-09-29T07:58:47;26.37;;;16.40;;
19193;SDS011;9729;52.296;13.260;2022-09-29T08:01:17;28.33;;;17.50;;
19193;SDS011;9729;52.296;13.260;2022-09-29T08:03:47;28.70;;;17.33;;
19193;SDS011;9729;52.296;13.260;2022-09-29T08:06:15;29.60;;;17.37;;
19193;SDS011;9729;52.296;13.260;2022-09-29T08:08:41;29.57;;;17.03;;
19193;SDS011;9729;52.296;13.260;2022-09-29T08:11:09;22.77;;;16.60;;
19193;SDS011;9729;52.296;13.260;2022-09-29T08:13:38;25.97;;;15.87;;
19193;SDS011;9729;52.296;13.260;2022-09-29T08:16:10;28.63;;;15.70;;
19193;SDS011;9729;52.296;13.260;2022-09-29T08:18:38;25.80;;;14.83;;
19193;SDS011;9729;52.296;13.260;2022-09-29T08:21:04;24.13;;;16.10;;
19193;SDS011;9729;52.296;13.260;2022-09-29T08:23:33;26.40;;;15.67;;
19193;SDS011;9729;52.296;13.260;2022-09-29T08:26:00;24.63;;;15.77;;
19193;SDS011;9729;52.296;13.260;2022-09-29T08:28:27;29.27;;;16.20;;
19193;SDS011;9729;52.296;13.260;2022-09-29T08:30:56;22.53;;;15.17;;
19193;SDS011;9729;52.296;13.260;2022-09-29T08:33:22;26.57;;;16.23;;
19193;SDS011;9729;52.296;13.260;2022-09-29T08:35:54;25.67;;;15.83;;
19193;SDS011;9729;52.296;13.260;2022-09-29T08:38:21;25.77;;;15.40;;
19193;SDS011;9729;52.296;13.260;2022-09-29T08:40:47;24.53;;;15.47;;
19193;SDS011;9729;52.296;13.260;2022-09-29T08:43:14;25.47;;;14.93;;
19193;SDS011;9729;52.296;13.260;2022-09-29T08:45:45;21.87;;;15.13;;
19193;SDS011;9729;52.296;13.260;2022-09-29T08:48:15;21.53;;;14.10;;
19193;SDS011;9729;52.296;13.260;2022-09-29T08:50:46;24.60;;;15.10;;
19193;SDS011;9729;52.296;13.260;2022-09-29T08:53:15;20.73;;;14.73;;
19193;SDS011;9729;52.296;13.260;2022-09-29T08:55:45;26.67;;;16.10;;
19193;SDS011;9729;52.296;13.260;2022-09-29T08:58:13;23.73;;;14.90;;
19193;SDS011;9729;52.296;13.260;2022-09-29T09:00:42;25.67;;;15.67;;
19193;SDS011;9729;52.296;13.260;2022-09-29T09:03:38;18.97;;;13.33;;
19193;SDS011;9729;52.296;13.260;2022-09-29T09:06:25;21.53;;;13.47;;
19193;SDS011;9729;52.296;13.260;2022-09-29T09:09:01;20.23;;;13.67;;
19193;SDS011;9729;52.296;13.260;2022-09-29T09:11:40;21.17;;;13.47;;
19193;SDS011;9729;52.296;13.260;2022-09-29T09:14:18;17.27;;;11.90;;
19193;SDS011;9729;52.296;13.260;2022-09-29T09:16:53;19.20;;;13.10;;
19193;SDS011;9729;52.296;13.260;2022-09-29T09:22:19;21.67;;;11.27;;
19193;SDS011;9729;52.296;13.260;2022-09-29T09:24:48;17.93;;;11.83;;
19193;SDS011;9729;52.296;13.260;2022-09-29T09:27:21;18.37;;;12.50;;
19193;SDS011;9729;52.296;13.260;2022-09-29T09:29:52;15.27;;;10.77;;
19193;SDS011;9729;52.296;13.260;2022-09-29T09:32:26;16.57;;;11.47;;
19193;SDS011;9729;52.296;13.260;2022-09-29T09:34:56;15.77;;;11.07;;
19193;SDS011;9729;52.296;13.260;2022-09-29T09:37:25;22.23;;;12.77;;
19193;SDS011;9729;52.296;13.260;2022-09-29T09:39:57;17.10;;;10.40;;
19193;SDS011;9729;52.296;13.260;2022-09-29T09:42:26;17.50;;;10.47;;
19193;SDS011;9729;52.296;13.260;2022-09-29T09:44:56;14.40;;;10.20;;
19193;SDS011;9729;52.296;13.260;2022-09-29T09:47:25;12.93;;;9.90;;
19193;SDS011;9729;52.296;13.260;2022-09-29T09:49:53;14.63;;;11.03;;
19193;SDS011;9729;52.296;13.260;2022-09-29T09:52:23;13.87;;;9.80;;
19193;SDS011;9729;52.296;13.260;2022-09-29T09:54:54;16.00;;;10.07;;
19193;SDS011;9729;52.296;13.260;2022-09-29T09:57:34;14.00;;;9.90;;
19193;SDS011;9729;52.296;13.260;2022-09-29T10:00:19;17.13;;;9.97;;
19193;SDS011;9729;52.296;13.260;2022-09-29T10:02:48;17.20;;;9.20;;
19193;SDS011;9729;52.296;13.260;2022-09-29T10:05:18;13.47;;;10.07;;
19193;SDS011;9729;52.296;13.260;2022-09-29T10:07:45;15.10;;;9.97;;
19193;SDS011;9729;52.296;13.260;2022-09-29T10:10:14;12.80;;;8.73;;
19193;SDS011;9729;52.296;13.260;2022-09-29T10:12:44;13.67;;;8.63;;
19193;SDS011;9729;52.296;13.260;2022-09-29T10:15:16;16.23;;;9.80;;
19193;SDS011;9729;52.296;13.260;2022-09-29T10:17:45;13.97;;;8.93;;
19193;SDS011;9729;52.296;13.260;2022-09-29T10:20:27;11.93;;;9.03;;
19193;SDS011;9729;52.296;13.260;2022-09-29T10:23:02;17.13;;;9.37;;
19193;SDS011;9729;52.296;13.260;2022-09-29T10:25:46;13.87;;;8.67;;
19193;SDS011;9729;52.296;13.260;2022-09-29T10:28:17;13.60;;;9.47;;
19193;SDS011;9729;52.296;13.260;2022-09-29T10:30:44;18.50;;;9.53;;
19193;SDS011;9729;52.296;13.260;2022-09-29T10:33:12;11.17;;;8.57;;
19193;SDS011;9729;52.296;13.260;2022-09-29T10:35:42;10.17;;;7.63;;
19193;SDS011;9729;52.296;13.260;2022-09-29T10:38:14;11.17;;;7.63;;
19193;SDS011;9729;52.296;13.260;2022-09-29T10:40:52;12.33;;;8.03;;
19193;SDS011;9729;52.296;13.260;2022-09-29T10:43:22;12.60;;;8.40;;
19193;SDS011;9729;52.296;13.260;2022-09-29T10:45:50;13.27;;;8.23;;
19193;SDS011;9729;52.296;13.260;2022-09-29T10:48:22;9.03;;;5.70;;
19193;SDS011;9729;52.296;13.260;2022-09-29T10:50:51;7.83;;;5.57;;
19193;SDS011;9729;52.296;13.260;2022-09-29T10:53:21;8.77;;;5.73;;
19193;SDS011;9729;52.296;13.260;2022-09-29T10:55:52;9.27;;;7.33;;
19193;SDS011;9729;52.296;13.260;2022-09-29T10:58:22;10.60;;;6.83;;
19193;SDS011;9729;52.296;13.260;2022-09-29T11:01:00;6.87;;;5.43;;
19193;SDS011;9729;52.296;13.260;2022-09-29T11:03:31;9.67;;;6.63;;
19193;SDS011;9729;52.296;13.260;2022-09-29T11:06:00;7.23;;;5.57;;
19193;SDS011;9729;52.296;13.260;2022-09-29T11:08:28;9.13;;;5.90;;
19193;SDS011;9729;52.296;13.260;2022-09-29T11:11:01;8.87;;;6.43;;
19193;SDS011;9729;52.296;13.260;2022-09-29T11:13:33;10.00;;;6.40;;
19193;SDS011;9729;52.296;13.260;2022-09-29T11:16:04;10.33;;;5.20;;
19193;SDS011;9729;52.296;13.260;2022-09-29T11:18:35;9.53;;;5.00;;
19193;SDS011;9729;52.296;13.260;2022-09-29T11:21:06;6.67;;;4.10;;
19193;SDS011;9729;52.296;13.260;2022-09-29T11:23:43;5.20;;;3.97;;
19193;SDS011;9729;52.296;13.260;2022-09-29T11:26:16;6.60;;;4.33;;
19193;SDS011;9729;52.296;13.260;2022-09-29T11:28:50;4.83;;;3.90;;
19193;SDS011;9729;52.296;13.260;2022-09-29T11:31:27;5.50;;;4.63;;
19193;SDS011;9729;52.296;13.260;2022-09-29T11:34:02;5.53;;;3.20;;
19193;SDS011;9729;52.296;13.260;2022-09-29T11:36:37;4.50;;;3.23;;
19193;SDS011;9729;52.296;13.260;2022-09-29T11:39:12;6.97;;;3.30;;
19193;SDS011;9729;52.296;13.260;2022-09-29T11:41:48;4.37;;;3.03;;
19193;SDS011;9729;52.296;13.260;2022-09-29T11:44:24;3.00;;;2.27;;
19193;SDS011;9729;52.296;13.260;2022-09-29T11:47:00;2.80;;;2.30;;
19193;SDS011;9729;52.296;13.260;2022-09-29T11:49:42;3.57;;;2.17;;
19193;SDS011;9729;52.296;13.260;2022-09-29T11:52:30;4.83;;;2.33;;
19193;SDS011;9729;52.296;13.260;2022-09-29T11:55:10;4.53;;;3.00;;
19193;SDS011;9729;52.296;13.260;2022-09-29T11:57:48;5.43;;;3.40;;
19193;SDS011;9729;52.296;13.260;2022-09-29T12:00:19;5.17;;;3.13;;
19193;SDS011;9729;52.296;13.260;2022-09-29T12:02:54;3.63;;;3.10;;
19193;SDS011;9729;52.296;13.260;2022-09-29T12:05:48;3.60;;;2.50;;
19193;SDS011;9729;52.296;13.260;2022-09-29T12:08:23;4.47;;;2.67;;
19193;SDS011;9729;52.296;13.260;2022-09-29T12:10:57;4.53;;;2.90;;
19193;SDS011;9729;52.296;13.260;2022-09-29T12:13:30;3.20;;;2.50;;
19193;SDS011;9729;52.296;13.260;2022-09-29T12:16:06;3.90;;;2.60;;
19193;SDS011;9729;52.296;13.260;2022-09-29T12:18:35;3.13;;;2.83;;
19193;SDS011;9729;52.296;13.260;2022-09-29T12:21:04;3.30;;;2.80;;
19193;SDS011;9729;52.296;13.260;2022-09-29T12:23:33;3.63;;;3.17;;
19193;SDS011;9729;52.296;13.260;2022-09-29T12:26:03;2.63;;;2.00;;
19193;SDS011;9729;52.296;13.260;2022-09-29T12:28:34;3.03;;;2.13;;
19193;SDS011;9729;52.296;13.260;2022-09-29T12:31:03;3.97;;;2.23;;
19193;SDS011;9729;52.296;13.260;2022-09-29T12:33:33;4.27;;;2.50;;
19193;SDS011;9729;52.296;13.260;2022-09-29T12:36:07;3.10;;;2.57;;
19193;SDS011;9729;52.296;13.260;2022-09-29T12:39:00;3.70;;;2.70;;
19193;SDS011;9729;52.296;13.260;2022-09-29T12:41:29;3.47;;;2.50;;
19193;SDS011;9729;52.296;13.260;2022-09-29T12:44:03;3.97;;;2.60;;
19193;SDS011;9729;52.296;13.260;2022-09-29T12:46:35;4.90;;;2.40;;
19193;SDS011;9729;52.296;13.260;2022-09-29T12:49:07;4.37;;;3.00;;
19193;SDS011;9729;52.296;13.260;2022-09-29T12:51:43;4.83;;;2.70;;
19193;SDS011;9729;52.296;13.260;2022-09-29T12:54:13;4.47;;;2.37;;
19193;SDS011;9729;52.296;13.260;2022-09-29T12:56:44;3.00;;;2.00;;
19193;SDS011;9729;52.296;13.260;2022-09-29T12:59:14;2.50;;;2.30;;
19193;SDS011;9729;52.296;13.260;2022-09-29T13:01:51;4.60;;;2.70;;
19193;SDS011;9729;52.296;13.260;2022-09-29T13:04:32;3.60;;;2.40;;
19193;SDS011;9729;52.296;13.260;2022-09-29T13:07:20;2.20;;;2.00;;
19193;SDS011;9729;52.296;13.260;2022-09-29T13:10:22;4.13;;;2.53;;
19193;SDS011;9729;52.296;13.260;2022-09-29T13:13:09;3.00;;;2.23;;
19193;SDS011;9729;52.296;13.260;2022-09-29T13:16:02;2.53;;;1.97;;
19193;SDS011;9729;52.296;13.260;2022-09-29T13:18:43;2.57;;;2.30;;
19193;SDS011;9729;52.296;13.260;2022-09-29T13:21:27;2.83;;;2.10;;
19193;SDS011;9729;52.296;13.260;2022-09-29T13:24:01;2.73;;;1.70;;
19193;SDS011;9729;52.296;13.260;2022-09-29T13:26:47;2.63;;;1.33;;
19193;SDS011;9729;52.296;13.260;2022-09-29T13:29:20;1.83;;;1.50;;
19193;SDS011;9729;52.296;13.260;2022-09-29T13:31:48;2.73;;;2.13;;
19193;SDS011;9729;52.296;13.260;2022-09-29T13:34:18;2.33;;;2.10;;
19193;SDS011;9729;52.296;13.260;2022-09-29T13:36:49;1.60;;;1.50;;
19193;SDS011;9729;52.296;13.260;2022-09-29T13:39:19;2.00;;;1.70;;
19193;SDS011;9729;52.296;13.260;2022-09-29T13:41:49;2.17;;;1.60;;
19193;SDS011;9729;52.296;13.260;2022-09-29T13:44:21;2.00;;;1.57;;
19193;SDS011;9729;52.296;13.260;2022-09-29T13:46:49;1.83;;;1.70;;
19193;SDS011;9729;52.296;13.260;2022-09-29T13:49:24;1.83;;;1.67;;
19193;SDS011;9729;52.296;13.260;2022-09-29T13:51:52;2.07;;;1.80;;
19193;SDS011;9729;52.296;13.260;2022-09-29T14:02:45;1.47;;;1.37;;
19193;SDS011;9729;52.296;13.260;2022-09-29T14:08:10;1.77;;;1.50;;
19193;SDS011;9729;52.296;13.260;2022-09-29T14:10:43;1.93;;;1.47;;
19193;SDS011;9729;52.296;13.260;2022-09-29T14:13:13;3.23;;;1.23;;
19193;SDS011;9729;52.296;13.260;2022-09-29T14:15:45;1.90;;;1.40;;
19193;SDS011;9729;52.296;13.260;2022-09-29T14:18:26;1.43;;;1.33;;
19193;SDS011;9729;52.296;13.260;2022-09-29T14:20:58;1.90;;;1.50;;
19193;SDS011;9729;52.296;13.260;2022-09-29T14:29:13;5.33;;;1.40;;
19193;SDS011;9729;52.296;13.260;2022-09-29T14:31:47;1.60;;;1.43;;
19193;SDS011;9729;52.296;13.260;2022-09-29T14:34:17;2.30;;;1.63;;
19193;SDS011;9729;52.296;13.260;2022-09-29T14:36:46;1.53;;;1.43;;
19193;SDS011;9729;52.296;13.260;2022-09-29T14:39:14;2.77;;;1.17;;
19193;SDS011;9729;52.296;13.260;2022-09-29T14:41:41;1.40;;;1.17;;
19193;SDS011;9729;52.296;13.260;2022-09-29T14:44:09;1.83;;;0.90;;
19193;SDS011;9729;52.296;13.260;2022-09-29T14:46:53;1.57;;;1.47;;
19193;SDS011;9729;52.296;13.260;2022-09-29T14:49:45;2.27;;;1.60;;
19193;SDS011;9729;52.296;13.260;2022-09-29T14:52:39;1.57;;;1.33;;
19193;SDS011;9729;52.296;13.260;2022-09-29T14:55:13;2.90;;;1.17;;
19193;SDS011;9729;52.296;13.260;2022-09-29T14:57:52;1.53;;;1.43;;
19193;SDS011;9729;52.296;13.260;2022-09-29T15:00:29;2.87;;;1.27;;
19193;SDS011;9729;52.296;13.260;2022-09-29T15:02:59;1.60;;;1.33;;
19193;SDS011;9729;52.296;13.260;2022-09-29T15:05:27;4.33;;;1.80;;
19193;SDS011;9729;52.296;13.260;2022-09-29T15:07:55;1.87;;;1.67;;
19193;SDS011;9729;52.296;13.260;2022-09-29T15:10:24;1.83;;;1.67;;
19193;SDS011;9729;52.296;13.260;2022-09-29T15:12:51;1.40;;;1.30;;